Terminal Aerodrome Forecast
Issued by NWS

Home | Current Version | Previous Version | Graphics & Text | Print | Product List | Glossary On
Versions: 1 2 3 4 5 6 7 8 9 10 11 12 13
351
FTUS45 KGGW 221723
TAFSDY
TAF
KSDY 221723Z 2218/2318 23019G27KT P6SM VCSH OVC050
     FM222000 26024G34KT P6SM VCSH BKN070
     FM222100 26023G33KT P6SM SCT070
     FM231200 28016G26KT P6SM FEW070=

USA.gov is the U.S. government's official web portal to all federal, state and local government web resources and services.